Terminal Aerodrome Forecast
Issued by NWS Missoula, MT

Home | Current Version | Previous Version | Text Only | Print | Product List | Glossary On
Versions: 1 2 3 4 5 6 7 8 9 10 11 12 13 14 15 16 17 18 19 20 21 22 23 24 25
320
FTUS45 KMSO 231736 AAA
TAFMSO
TAF AMD
KMSO 231736Z 2318/2418 VRB03KT 6SM BR FEW030 OVC060
     FM232000 12006KT P6SM SCT050 BKN120
     FM241600 12006KT P6SM VCSH BKN070=

USA.gov is the U.S. government's official web portal to all federal, state and local government web resources and services.